Time;durP1;ratioP1;P1;durP2;ratioP2;P2;SDS_P1;SDS_P2;PMS_P1;PMS_P2;Temp;Humidity;BMP_temperature;BMP_pressure;BME280_temperature;BME280_humidity;BME280_pressure;Samples;Min_cycle;Max_cycle;Signal;HPM_P1;HPM_P2
2023/03/14 00:00:17;;;;;;;;;;;20.40;44.10;;;;;;1548380;77;1550;-59
2023/03/14 00:02:19;;;;;;;;;;;20.50;44.10;;;;;;1540532;77;1133;-58
2023/03/14 00:04:21;;;;;;;;;;;20.30;44.00;;;;;;1542588;77;779;-60
2023/03/14 00:06:23;;;;;;;;;;;20.40;44.10;;;;;;1544198;77;767;-60
2023/03/14 00:08:25;;;;;;;;;;;20.40;44.00;;;;;;1537806;77;834;-60
2023/03/14 00:10:27;;;;;;;;;;;20.40;44.10;;;;;;1533378;77;738;-59
2023/03/14 00:12:29;;;;;;;;;;;20.40;44.20;;;;;;1539014;77;1955;-60
2023/03/14 00:14:31;;;;;;;;;;;20.40;44.10;;;;;;1538686;77;1540;-59
2023/03/14 00:16:33;;;;;;;;;;;20.40;44.20;;;;;;1535807;77;724;-61
2023/03/14 00:18:36;;;;;;;;;;;20.40;44.20;;;;;;1539640;77;667;-61
2023/03/14 00:20:37;;;;;;;;;;;20.30;44.20;;;;;;1536819;77;827;-59
2023/03/14 00:22:39;;;;;;;;;;;20.30;44.20;;;;;;1535416;77;1086;-59
2023/03/14 00:24:41;;;;;;;;;;;20.30;44.20;;;;;;1540284;77;733;-64
2023/03/14 00:26:43;;;;;;;;;;;20.40;44.20;;;;;;1545668;77;649;-60
2023/03/14 00:28:45;;;;;;;;;;;20.40;44.20;;;;;;1529390;77;1511;-61
2023/03/14 00:30:47;;;;;;;;;;;20.30;44.30;;;;;;1537986;77;697;-60
2023/03/14 00:32:49;;;;;;;;;;;20.40;44.30;;;;;;1540945;77;1945;-60
2023/03/14 00:34:51;;;;;;;;;;;20.30;44.30;;;;;;1537260;77;732;-60
2023/03/14 00:36:52;;;;;;;;;;;20.40;44.40;;;;;;1538501;77;868;-59
2023/03/14 00:38:54;;;;;;;;;;;20.30;44.30;;;;;;1534766;77;770;-61
2023/03/14 00:40:56;;;;;;;;;;;20.40;44.40;;;;;;1552243;75;796;-60
2023/03/14 00:42:58;;;;;;;;;;;20.40;44.40;;;;;;1532255;77;1222;-59
2023/03/14 00:45:00;;;;;;;;;;;20.30;44.40;;;;;;1538965;77;720;-62
2023/03/14 00:47:02;;;;;;;;;;;20.30;44.30;;;;;;1538119;77;778;-59
2023/03/14 00:49:04;;;;;;;;;;;20.30;44.40;;;;;;1540471;77;747;-60
2023/03/14 00:51:06;;;;;;;;;;;20.30;44.40;;;;;;1539780;77;659;-59
2023/03/14 00:53:08;;;;;;;;;;;20.30;44.40;;;;;;1539759;77;1951;-60
2023/03/14 00:55:10;;;;;;;;;;;20.30;44.40;;;;;;1547035;77;689;-59
2023/03/14 00:57:11;;;;;;;;;;;20.30;44.40;;;;;;1547896;77;1585;-59
2023/03/14 00:59:13;;;;;;;;;;;20.30;44.40;;;;;;1540409;77;831;-60
2023/03/14 01:01:16;;;;;;;;;;;20.20;44.40;;;;;;1546644;77;731;-60
2023/03/14 01:03:18;;;;;;;;;;;20.40;44.50;;;;;;1543125;77;743;-59
2023/03/14 01:05:20;;;;;;;;;;;20.30;44.50;;;;;;1533011;75;747;-59
2023/03/14 01:07:22;;;;;;;;;;;20.20;44.40;;;;;;1513986;78;1376;-59
2023/03/14 01:09:24;;;;;;;;;;;20.30;44.60;;;;;;1545555;77;790;-60
2023/03/14 01:11:26;;;;;;;;;;;20.20;44.40;;;;;;1537342;77;1536;-59
2023/03/14 01:13:28;;;;;;;;;;;20.30;44.60;;;;;;1537372;77;1928;-59
2023/03/14 01:15:30;;;;;;;;;;;20.20;44.50;;;;;;1548128;77;604;-60
2023/03/14 01:17:32;;;;;;;;;;;20.30;44.60;;;;;;1545395;77;671;-59
2023/03/14 01:19:34;;;;;;;;;;;20.30;44.60;;;;;;1548024;77;775;-59
2023/03/14 01:21:36;;;;;;;;;;;20.20;44.50;;;;;;1534901;77;1135;-60
2023/03/14 01:23:38;;;;;;;;;;;20.20;44.50;;;;;;1542934;77;785;-60
2023/03/14 01:25:41;;;;;;;;;;;20.20;44.50;;;;;;1546304;77;1353;-59
2023/03/14 01:27:43;;;;;;;;;;;20.20;44.60;;;;;;1530446;77;799;-59
2023/03/14 01:29:47;;;;;;;;;;;20.20;44.60;;;;;;1526287;77;704;-59
2023/03/14 01:31:48;;;;;;;;;;;20.20;44.60;;;;;;1548083;77;1135;-64
2023/03/14 01:33:51;;;;;;;;;;;20.20;44.60;;;;;;1534814;77;1940;-60
2023/03/14 01:35:53;;;;;;;;;;;20.20;44.60;;;;;;1547946;77;712;-60
2023/03/14 01:37:54;;;;;;;;;;;20.20;44.60;;;;;;1537451;77;781;-60
2023/03/14 01:39:56;;;;;;;;;;;20.20;44.70;;;;;;1544223;77;1422;-60
2023/03/14 01:41:59;;;;;;;;;;;20.20;44.60;;;;;;1532455;77;1148;-60
2023/03/14 01:44:01;;;;;;;;;;;20.20;44.70;;;;;;1532811;77;820;-60
2023/03/14 01:46:04;;;;;;;;;;;20.20;44.70;;;;;;1544287;77;798;-59
2023/03/14 01:48:06;;;;;;;;;;;20.20;44.70;;;;;;1538597;77;766;-59
2023/03/14 01:50:10;;;;;;;;;;;20.20;44.80;;;;;;1535771;77;714;-60
2023/03/14 01:52:16;;;;;;;;;;;20.20;44.70;;;;;;1543611;77;1567;-60
2023/03/14 01:54:20;;;;;;;;;;;20.20;44.70;;;;;;1526317;77;1041;-59
2023/03/14 01:56:22;;;;;;;;;;;20.20;44.70;;;;;;1527154;77;713;-60
2023/03/14 01:58:26;;;;;;;;;;;20.20;44.70;;;;;;1532396;77;820;-61
2023/03/14 02:00:28;;;;;;;;;;;20.20;44.70;;;;;;1540161;77;1740;-60
2023/03/14 02:02:30;;;;;;;;;;;20.20;44.70;;;;;;1534897;77;1126;-60
2023/03/14 02:04:33;;;;;;;;;;;20.20;44.70;;;;;;1533989;77;716;-60
2023/03/14 02:06:40;;;;;;;;;;;20.20;44.70;;;;;;1534467;77;1309;-60
2023/03/14 02:08:43;;;;;;;;;;;20.20;44.70;;;;;;1535996;77;760;-59
2023/03/14 02:10:46;;;;;;;;;;;20.30;44.70;;;;;;1538994;77;693;-60
2023/03/14 02:12:48;;;;;;;;;;;20.20;44.60;;;;;;1535087;77;1946;-60
2023/03/14 02:14:50;;;;;;;;;;;20.20;44.60;;;;;;1543312;77;743;-60
2023/03/14 02:16:52;;;;;;;;;;;20.20;44.70;;;;;;1537026;77;638;-60
2023/03/14 02:18:54;;;;;;;;;;;20.30;44.70;;;;;;1535179;77;744;-60
2023/03/14 02:21:03;;;;;;;;;;;20.30;44.70;;;;;;1546436;77;1312;-59
2023/03/14 02:23:05;;;;;;;;;;;20.20;44.60;;;;;;1541117;77;1102;-60
2023/03/14 02:25:24;;;;;;;;;;;20.30;44.70;;;;;;1529420;77;763;-60
2023/03/14 02:27:26;;;;;;;;;;;20.30;44.70;;;;;;1542613;77;1927;-61
2023/03/14 02:29:27;;;;;;;;;;;20.30;44.70;;;;;;1541100;77;719;-60
2023/03/14 02:31:29;;;;;;;;;;;20.30;44.70;;;;;;1542261;77;1139;-60
2023/03/14 02:33:31;;;;;;;;;;;20.20;44.60;;;;;;1540521;77;1936;-60
2023/03/14 02:35:35;;;;;;;;;;;20.20;44.60;;;;;;1542516;77;1541;-60
2023/03/14 02:37:41;;;;;;;;;;;20.30;44.80;;;;;;1544246;77;1065;-62
2023/03/14 02:39:44;;;;;;;;;;;20.30;44.70;;;;;;1537069;77;738;-60
2023/03/14 02:41:48;;;;;;;;;;;20.20;44.60;;;;;;1546769;77;1116;-59
2023/03/14 02:43:49;;;;;;;;;;;20.20;44.70;;;;;;1529946;77;1625;-60
2023/03/14 02:45:51;;;;;;;;;;;20.30;44.70;;;;;;1535047;77;705;-62
2023/03/14 02:47:54;;;;;;;;;;;20.20;44.60;;;;;;1527864;77;748;-59
2023/03/14 02:49:58;;;;;;;;;;;20.20;44.60;;;;;;1538562;77;1341;-59
2023/03/14 02:52:00;;;;;;;;;;;20.30;44.70;;;;;;1546377;77;2346;-60
2023/03/14 02:54:01;;;;;;;;;;;20.20;44.60;;;;;;1531183;77;1951;-59
2023/03/14 02:56:04;;;;;;;;;;;20.20;44.60;;;;;;1538271;77;762;-61
2023/03/14 02:58:06;;;;;;;;;;;20.20;44.60;;;;;;1538236;77;691;-60
2023/03/14 03:00:09;;;;;;;;;;;20.20;44.60;;;;;;1548543;77;756;-60
2023/03/14 03:02:10;;;;;;;;;;;20.30;44.80;;;;;;1543398;77;1123;-60
2023/03/14 03:04:12;;;;;;;;;;;20.20;44.60;;;;;;1527231;77;1525;-60
2023/03/14 03:06:14;;;;;;;;;;;20.20;44.60;;;;;;1541204;77;765;-60
2023/03/14 03:08:16;;;;;;;;;;;20.20;44.60;;;;;;1512825;78;843;-59
2023/03/14 03:10:18;;;;;;;;;;;20.30;44.70;;;;;;1545805;77;736;-59
2023/03/14 03:12:20;;;;;;;;;;;20.20;44.60;;;;;;1541906;77;1198;-60
2023/03/14 03:14:22;;;;;;;;;;;20.20;44.60;;;;;;1529653;77;1930;-60
2023/03/14 03:16:24;;;;;;;;;;;20.20;44.60;;;;;;1535816;77;715;-59
2023/03/14 03:18:25;;;;;;;;;;;20.20;44.60;;;;;;1543636;77;1404;-61
2023/03/14 03:20:27;;;;;;;;;;;20.30;44.70;;;;;;1533587;77;691;-60
2023/03/14 03:22:30;;;;;;;;;;;20.20;44.60;;;;;;1545703;77;1118;-60
2023/03/14 03:24:31;;;;;;;;;;;20.30;44.80;;;;;;1538334;77;740;-59
2023/03/14 03:26:34;;;;;;;;;;;20.20;44.70;;;;;;1535421;77;750;-59
2023/03/14 03:28:36;;;;;;;;;;;20.20;44.60;;;;;;1527490;77;717;-59
2023/03/14 03:30:39;;;;;;;;;;;20.20;44.60;;;;;;1535643;77;684;-59
2023/03/14 03:32:40;;;;;;;;;;;20.20;44.60;;;;;;1527878;77;1127;-60
2023/03/14 03:34:42;;;;;;;;;;;20.20;44.60;;;;;;1531226;77;1932;-60
2023/03/14 03:36:44;;;;;;;;;;;20.20;44.60;;;;;;1548514;77;932;-60
2023/03/14 03:38:46;;;;;;;;;;;20.20;44.50;;;;;;1533233;77;730;-59
2023/03/14 03:40:48;;;;;;;;;;;20.20;44.50;;;;;;1538888;77;768;-60
2023/03/14 03:42:50;;;;;;;;;;;20.20;44.60;;;;;;1536075;77;1091;-60
2023/03/14 03:44:52;;;;;;;;;;;20.20;44.60;;;;;;1534298;77;1316;-60
2023/03/14 03:46:54;;;;;;;;;;;20.20;44.50;;;;;;1524948;77;653;-60
2023/03/14 03:48:56;;;;;;;;;;;20.20;44.50;;;;;;1534627;77;723;-60
2023/03/14 03:50:58;;;;;;;;;;;20.20;44.60;;;;;;1538722;77;864;-60
2023/03/14 03:53:00;;;;;;;;;;;20.20;44.60;;;;;;1548177;77;1118;-60
2023/03/14 03:55:02;;;;;;;;;;;20.20;44.50;;;;;;1538102;77;782;-59
2023/03/14 03:57:03;;;;;;;;;;;20.20;44.60;;;;;;1545956;77;737;-59
2023/03/14 03:59:05;;;;;;;;;;;20.20;44.60;;;;;;1533291;77;1520;-60
2023/03/14 04:01:07;;;;;;;;;;;20.20;44.60;;;;;;1532597;77;660;-60
2023/03/14 04:03:09;;;;;;;;;;;20.20;44.60;;;;;;1538780;77;1123;-60
2023/03/14 04:05:11;;;;;;;;;;;20.20;44.60;;;;;;1539668;77;755;-58
2023/03/14 04:07:13;;;;;;;;;;;20.20;44.70;;;;;;1534881;77;669;-60
2023/03/14 04:09:15;;;;;;;;;;;20.20;44.60;;;;;;1533338;77;717;-60
2023/03/14 04:11:17;;;;;;;;;;;20.20;44.50;;;;;;1540662;77;751;-60
2023/03/14 04:13:19;;;;;;;;;;;20.20;44.60;;;;;;1537301;77;1956;-61
2023/03/14 04:15:21;;;;;;;;;;;20.20;44.70;;;;;;1540894;77;753;-60
2023/03/14 04:17:23;;;;;;;;;;;20.20;44.60;;;;;;1541998;77;690;-59
2023/03/14 04:19:25;;;;;;;;;;;20.20;44.60;;;;;;1531754;77;874;-60
2023/03/14 04:21:27;;;;;;;;;;;20.20;44.70;;;;;;1531930;77;1143;-60
2023/03/14 04:23:29;;;;;;;;;;;20.20;44.60;;;;;;1542498;77;757;-60
2023/03/14 04:25:31;;;;;;;;;;;20.20;44.60;;;;;;1545424;77;910;-60
2023/03/14 04:27:33;;;;;;;;;;;20.20;44.60;;;;;;1547425;77;1509;-59
2023/03/14 04:29:35;;;;;;;;;;;20.20;44.60;;;;;;1540326;77;884;-59
2023/03/14 04:31:37;;;;;;;;;;;20.20;44.60;;;;;;1546921;77;1094;-61
2023/03/14 04:33:39;;;;;;;;;;;20.20;44.60;;;;;;1541205;77;1941;-60
2023/03/14 04:35:40;;;;;;;;;;;20.20;44.60;;;;;;1537062;77;722;-60
2023/03/14 04:37:43;;;;;;;;;;;20.20;44.60;;;;;;1537304;77;780;-61
2023/03/14 04:39:44;;;;;;;;;;;20.20;44.70;;;;;;1542684;77;721;-60
2023/03/14 04:41:46;;;;;;;;;;;20.20;44.70;;;;;;1547894;77;1557;-59
2023/03/14 04:43:48;;;;;;;;;;;20.20;44.70;;;;;;1538838;77;682;-61
2023/03/14 04:45:50;;;;;;;;;;;20.20;44.70;;;;;;1548181;77;761;-60
2023/03/14 04:47:52;;;;;;;;;;;20.20;44.60;;;;;;1529261;77;788;-60
2023/03/14 04:49:54;;;;;;;;;;;20.20;44.60;;;;;;1533758;77;803;-60
2023/03/14 04:51:56;;;;;;;;;;;20.20;44.60;;;;;;1542635;77;1114;-59
2023/03/14 04:53:58;;;;;;;;;;;20.20;44.70;;;;;;1533982;77;1981;-60
2023/03/14 04:55:59;;;;;;;;;;;20.20;44.60;;;;;;1544335;77;1425;-60
2023/03/14 04:58:01;;;;;;;;;;;20.20;44.60;;;;;;1537930;77;771;-59
2023/03/14 05:00:07;;;;;;;;;;;20.20;44.60;;;;;;1547087;77;746;-60
2023/03/14 05:02:09;;;;;;;;;;;20.20;44.70;;;;;;1534863;77;1134;-60
2023/03/14 05:04:10;;;;;;;;;;;20.10;44.60;;;;;;1535343;77;699;-60
2023/03/14 05:06:12;;;;;;;;;;;20.20;44.60;;;;;;1539359;77;783;-60
2023/03/14 05:08:14;;;;;;;;;;;20.10;44.70;;;;;;1536786;77;765;-60
2023/03/14 05:10:16;;;;;;;;;;;20.10;44.70;;;;;;1537441;77;1525;-59
2023/03/14 05:12:18;;;;;;;;;;;20.20;44.70;;;;;;1536945;77;1160;-60
2023/03/14 05:14:20;;;;;;;;;;;20.10;44.70;;;;;;1539941;77;1925;-60
2023/03/14 05:16:22;;;;;;;;;;;20.10;44.70;;;;;;1540881;77;772;-60
2023/03/14 05:18:24;;;;;;;;;;;20.10;44.70;;;;;;1545416;77;758;-60
2023/03/14 05:20:26;;;;;;;;;;;20.10;44.70;;;;;;1545652;77;708;-61
2023/03/14 05:22:27;;;;;;;;;;;20.10;44.70;;;;;;1540172;77;1122;-61
2023/03/14 05:24:29;;;;;;;;;;;20.10;44.70;;;;;;1547110;77;1501;-60
2023/03/14 05:26:31;;;;;;;;;;;20.10;44.70;;;;;;1527623;77;726;-60
2023/03/14 05:28:33;;;;;;;;;;;20.10;44.70;;;;;;1542489;77;806;-60
2023/03/14 05:30:35;;;;;;;;;;;20.10;44.70;;;;;;1529132;77;748;-59
2023/03/14 05:32:37;;;;;;;;;;;20.10;44.70;;;;;;1525876;77;1123;-60
2023/03/14 05:34:39;;;;;;;;;;;20.10;44.70;;;;;;1531980;77;1963;-59
2023/03/14 05:36:40;;;;;;;;;;;20.10;44.70;;;;;;1539879;77;754;-60
2023/03/14 05:38:42;;;;;;;;;;;20.10;44.70;;;;;;1542853;77;1610;-59
2023/03/14 05:40:45;;;;;;;;;;;20.10;44.70;;;;;;1534561;77;675;-60
2023/03/14 05:42:47;;;;;;;;;;;20.10;44.70;;;;;;1539628;77;1149;-60
2023/03/14 05:44:49;;;;;;;;;;;20.10;44.70;;;;;;1534117;77;670;-59
2023/03/14 05:46:51;;;;;;;;;;;20.10;44.70;;;;;;1535299;77;787;-59
2023/03/14 05:48:53;;;;;;;;;;;20.10;44.70;;;;;;1543345;77;784;-60
2023/03/14 05:50:55;;;;;;;;;;;20.10;44.70;;;;;;1532944;77;721;-60
2023/03/14 05:52:57;;;;;;;;;;;20.20;44.70;;;;;;1542249;77;1602;-60
2023/03/14 05:54:59;;;;;;;;;;;20.10;44.70;;;;;;1540712;77;1948;-60
2023/03/14 05:57:01;;;;;;;;;;;20.10;44.70;;;;;;1530548;77;780;-60
2023/03/14 05:59:03;;;;;;;;;;;20.10;44.80;;;;;;1538482;77;691;-60
2023/03/14 06:01:05;;;;;;;;;;;20.00;44.60;;;;;;1528707;77;689;-58
2023/03/14 06:03:07;;;;;;;;;;;20.10;44.70;;;;;;1538180;77;1041;-59
2023/03/14 06:05:09;;;;;;;;;;;20.10;44.80;;;;;;1540751;77;728;-61
2023/03/14 06:07:11;;;;;;;;;;;20.10;44.80;;;;;;1536443;77;1525;-60
2023/03/14 06:09:13;;;;;;;;;;;20.10;44.80;;;;;;1526322;77;783;-59
2023/03/14 06:11:15;;;;;;;;;;;20.10;44.80;;;;;;1534131;77;707;-61
2023/03/14 06:13:16;;;;;;;;;;;20.10;44.70;;;;;;1541102;77;1215;-60
2023/03/14 06:15:18;;;;;;;;;;;20.00;44.70;;;;;;1536649;77;1939;-60
2023/03/14 06:17:20;;;;;;;;;;;20.10;44.80;;;;;;1542681;77;724;-60
2023/03/14 06:19:23;;;;;;;;;;;20.10;44.70;;;;;;1546829;77;752;-60
2023/03/14 06:21:25;;;;;;;;;;;20.10;44.70;;;;;;1524918;77;1133;-60
2023/03/14 06:23:27;;;;;;;;;;;20.10;44.80;;;;;;1527366;77;575;-60
2023/03/14 06:25:29;;;;;;;;;;;20.10;44.80;;;;;;1541846;77;791;-60
2023/03/14 06:27:31;;;;;;;;;;;20.10;44.70;;;;;;1537316;77;707;-60
2023/03/14 06:29:33;;;;;;;;;;;20.10;44.80;;;;;;1537695;77;771;-60
2023/03/14 06:31:35;;;;;;;;;;;20.20;44.70;;;;;;1547900;77;1126;-62
2023/03/14 06:33:36;;;;;;;;;;;20.10;44.70;;;;;;1536255;77;1509;-60
2023/03/14 06:35:38;;;;;;;;;;;20.10;44.70;;;;;;1523510;77;1942;-59
2023/03/14 06:37:40;;;;;;;;;;;20.20;44.80;;;;;;1540025;77;729;-60
2023/03/14 06:39:44;;;;;;;;;;;20.10;44.70;;;;;;1543836;77;781;-60
2023/03/14 06:41:46;;;;;;;;;;;20.10;44.70;;;;;;1534414;77;1111;-60
2023/03/14 06:43:47;;;;;;;;;;;20.10;44.80;;;;;;1548469;77;704;-60
2023/03/14 06:45:49;;;;;;;;;;;20.10;44.70;;;;;;1545987;77;909;-61
2023/03/14 06:47:51;;;;;;;;;;;20.10;44.70;;;;;;1541962;77;1563;-60
2023/03/14 06:49:53;;;;;;;;;;;20.10;44.80;;;;;;1532928;77;738;-60
2023/03/14 06:51:55;;;;;;;;;;;20.10;44.70;;;;;;1530436;77;1083;-60
2023/03/14 06:53:57;;;;;;;;;;;20.10;44.70;;;;;;1540825;77;679;-59
2023/03/14 06:55:59;;;;;;;;;;;20.10;44.70;;;;;;1538036;77;1938;-59
2023/03/14 06:58:01;;;;;;;;;;;20.10;44.80;;;;;;1545494;77;699;-59
2023/03/14 07:00:03;;;;;;;;;;;20.20;44.80;;;;;;1547232;77;734;-60
2023/03/14 07:02:07;;;;;;;;;;;20.10;44.80;;;;;;1541471;77;1473;-60
2023/03/14 07:04:09;;;;;;;;;;;20.10;44.80;;;;;;1537871;77;736;-59
2023/03/14 07:06:11;;;;;;;;;;;20.10;44.80;;;;;;1537341;77;669;-60
2023/03/14 07:08:13;;;;;;;;;;;20.10;44.80;;;;;;1540512;77;740;-60
2023/03/14 07:10:15;;;;;;;;;;;20.10;44.80;;;;;;1536363;77;809;-60
2023/03/14 07:12:17;;;;;;;;;;;20.10;44.80;;;;;;1547675;75;1239;-62
2023/03/14 07:14:19;;;;;;;;;;;20.10;44.80;;;;;;1546124;77;1928;-60
2023/03/14 07:16:20;;;;;;;;;;;20.10;44.70;;;;;;1530148;77;1604;-60
2023/03/14 07:18:22;;;;;;;;;;;20.20;44.80;;;;;;1533268;77;795;-60
2023/03/14 07:20:24;;;;;;;;;;;20.10;44.80;;;;;;1535547;77;732;-60
2023/03/14 07:22:26;;;;;;;;;;;20.10;44.70;;;;;;1528289;77;1139;-60
2023/03/14 07:24:28;;;;;;;;;;;20.10;44.80;;;;;;1536482;77;720;-61
2023/03/14 07:26:30;;;;;;;;;;;20.10;44.80;;;;;;1546640;77;786;-59
2023/03/14 07:28:32;;;;;;;;;;;20.10;44.80;;;;;;1547846;77;769;-61
2023/03/14 07:30:34;;;;;;;;;;;20.10;44.80;;;;;;1537590;77;1590;-60
2023/03/14 07:32:35;;;;;;;;;;;20.20;44.80;;;;;;1546788;77;1129;-60
2023/03/14 07:34:37;;;;;;;;;;;20.10;44.80;;;;;;1538728;77;1951;-61
2023/03/14 07:36:39;;;;;;;;;;;20.10;44.80;;;;;;1530449;77;767;-60
2023/03/14 07:38:41;;;;;;;;;;;20.10;44.80;;;;;;1544205;77;698;-61
2023/03/14 07:40:43;;;;;;;;;;;20.20;44.80;;;;;;1547334;77;789;-60
2023/03/14 07:42:45;;;;;;;;;;;20.10;44.90;;;;;;1538219;77;1115;-60
2023/03/14 07:44:47;;;;;;;;;;;20.10;44.80;;;;;;1535435;77;1510;-59
2023/03/14 07:46:49;;;;;;;;;;;20.10;44.80;;;;;;1523873;77;756;-60
2023/03/14 07:48:50;;;;;;;;;;;20.10;44.80;;;;;;1548758;77;708;-59
2023/03/14 07:50:52;;;;;;;;;;;20.10;44.80;;;;;;1529527;77;841;-60
2023/03/14 07:52:54;;;;;;;;;;;20.10;44.80;;;;;;1537766;77;1135;-60
2023/03/14 07:54:56;;;;;;;;;;;20.10;44.90;;;;;;1545812;77;1927;-62
2023/03/14 07:57:01;;;;;;;;;;;20.00;44.70;;;;;;1534830;77;759;-59
2023/03/14 07:59:03;;;;;;;;;;;20.20;44.90;;;;;;1545370;77;1555;-59
2023/03/14 08:01:05;;;;;;;;;;;20.10;44.80;;;;;;1529717;77;719;-60
2023/03/14 08:03:07;;;;;;;;;;;20.20;44.80;;;;;;1538658;77;1136;-60
2023/03/14 08:05:09;;;;;;;;;;;20.10;44.80;;;;;;1542783;77;770;-60
2023/03/14 08:07:11;;;;;;;;;;;20.10;44.80;;;;;;1537316;77;659;-62
2023/03/14 08:09:13;;;;;;;;;;;20.20;44.80;;;;;;1544058;77;691;-60
2023/03/14 08:11:15;;;;;;;;;;;20.20;44.80;;;;;;1542760;77;771;-60
2023/03/14 08:13:17;;;;;;;;;;;20.20;44.80;;;;;;1537335;77;1523;-60
2023/03/14 08:15:19;;;;;;;;;;;20.20;44.80;;;;;;1540868;77;1939;-59
2023/03/14 08:17:21;;;;;;;;;;;20.10;44.80;;;;;;1547022;77;769;-60
2023/03/14 08:19:23;;;;;;;;;;;20.20;44.80;;;;;;1542909;77;949;-59
2023/03/14 08:21:24;;;;;;;;;;;20.20;44.70;;;;;;1536113;77;1187;-60
2023/03/14 08:23:27;;;;;;;;;;;20.20;44.70;;;;;;1530736;77;728;-60
2023/03/14 08:25:29;;;;;;;;;;;20.20;44.70;;;;;;1541676;77;767;-61
2023/03/14 08:27:31;;;;;;;;;;;20.20;44.80;;;;;;1508144;78;1622;-60
2023/03/14 08:29:33;;;;;;;;;;;20.20;44.80;;;;;;1524311;77;569;-60
2023/03/14 08:31:35;;;;;;;;;;;20.20;44.80;;;;;;1542244;77;1083;-59
2023/03/14 08:33:37;;;;;;;;;;;20.20;44.70;;;;;;1544464;77;747;-60
2023/03/14 08:35:39;;;;;;;;;;;20.20;44.70;;;;;;1531844;77;1948;-59
2023/03/14 08:37:41;;;;;;;;;;;20.20;44.70;;;;;;1538914;77;728;-59
2023/03/14 08:39:43;;;;;;;;;;;20.20;44.70;;;;;;1539401;77;719;-59
2023/03/14 08:41:44;;;;;;;;;;;20.20;44.70;;;;;;1546618;77;1489;-59
2023/03/14 08:43:46;;;;;;;;;;;20.20;44.70;;;;;;1539039;77;750;-60
2023/03/14 08:45:48;;;;;;;;;;;20.20;44.70;;;;;;1547932;77;774;-64
2023/03/14 08:47:50;;;;;;;;;;;20.20;44.80;;;;;;1526817;77;794;-60
2023/03/14 08:49:52;;;;;;;;;;;20.20;44.70;;;;;;1533551;77;759;-61
2023/03/14 08:51:54;;;;;;;;;;;20.20;44.80;;;;;;1525851;77;1112;-59
2023/03/14 08:53:56;;;;;;;;;;;20.10;44.70;;;;;;1533074;77;804;-60
2023/03/14 08:55:57;;;;;;;;;;;20.10;44.70;;;;;;1536913;77;1943;-60
2023/03/14 08:57:59;;;;;;;;;;;20.20;44.70;;;;;;1537924;77;696;-60
2023/03/14 09:00:04;;;;;;;;;;;20.20;44.70;;;;;;1538871;77;790;-60
2023/03/14 09:02:05;;;;;;;;;;;20.20;44.70;;;;;;1535992;77;1688;-60
2023/03/14 09:04:07;;;;;;;;;;;20.20;44.70;;;;;;1537551;77;712;-60
2023/03/14 09:06:09;;;;;;;;;;;20.20;44.70;;;;;;1542106;77;628;-60
2023/03/14 09:08:11;;;;;;;;;;;20.10;44.70;;;;;;1542803;77;1545;-61
2023/03/14 09:10:13;;;;;;;;;;;20.20;44.70;;;;;;1538200;77;788;-60
2023/03/14 09:12:15;;;;;;;;;;;20.20;44.70;;;;;;1543244;77;1160;-59
2023/03/14 09:14:16;;;;;;;;;;;20.20;44.70;;;;;;1547270;77;756;-59
2023/03/14 09:16:18;;;;;;;;;;;20.20;44.70;;;;;;1542323;77;1953;-60
2023/03/14 09:18:20;;;;;;;;;;;20.20;44.70;;;;;;1534897;77;650;-59
2023/03/14 09:20:22;;;;;;;;;;;20.20;44.60;;;;;;1532363;77;752;-59
2023/03/14 09:22:24;;;;;;;;;;;20.20;44.70;;;;;;1539106;77;1175;-61
2023/03/14 09:24:26;;;;;;;;;;;20.20;44.70;;;;;;1537759;77;921;-59
2023/03/14 09:26:28;;;;;;;;;;;20.20;44.70;;;;;;1536468;77;708;-60
2023/03/14 09:28:30;;;;;;;;;;;20.20;44.70;;;;;;1529139;77;740;-60
2023/03/14 09:30:32;;;;;;;;;;;20.20;44.70;;;;;;1535596;77;785;-61
2023/03/14 09:32:34;;;;;;;;;;;20.20;44.70;;;;;;1548953;77;1141;-61
2023/03/14 09:34:36;;;;;;;;;;;20.20;44.70;;;;;;1529872;77;721;-59
2023/03/14 09:36:39;;;;;;;;;;;20.20;44.70;;;;;;1544738;77;1947;-60
2023/03/14 09:38:41;;;;;;;;;;;20.20;44.70;;;;;;1539948;77;761;-60
2023/03/14 09:40:43;;;;;;;;;;;20.30;44.80;;;;;;1540380;77;717;-60
2023/03/14 09:42:44;;;;;;;;;;;20.20;44.70;;;;;;1545108;77;1112;-60
2023/03/14 09:44:48;;;;;;;;;;;20.30;44.80;;;;;;1545339;77;674;-60
2023/03/14 09:46:51;;;;;;;;;;;20.30;44.90;;;;;;1531561;77;1685;-61
2023/03/14 09:48:53;;;;;;;;;;;20.20;44.70;;;;;;1548508;77;731;-60
2023/03/14 09:50:55;;;;;;;;;;;20.30;44.80;;;;;;1542378;77;1529;-60
2023/03/14 09:52:59;;;;;;;;;;;20.30;44.90;;;;;;1543524;77;1137;-60
2023/03/14 09:55:02;;;;;;;;;;;20.30;44.90;;;;;;1539432;77;685;-60
2023/03/14 09:57:05;;;;;;;;;;;20.30;45.00;;;;;;1527079;77;1941;-59
2023/03/14 09:59:06;;;;;;;;;;;20.30;45.00;;;;;;1533616;77;749;-60
2023/03/14 10:01:09;;;;;;;;;;;20.30;45.00;;;;;;1539209;77;715;-60
2023/03/14 10:03:15;;;;;;;;;;;20.30;45.10;;;;;;1543312;77;1173;-59
2023/03/14 10:05:18;;;;;;;;;;;20.40;45.00;;;;;;1536556;77;1573;-61
2023/03/14 10:07:21;;;;;;;;;;;20.40;45.00;;;;;;1533786;77;752;-60
2023/03/14 10:09:28;;;;;;;;;;;20.30;45.00;;;;;;1540535;77;764;-62
2023/03/14 10:11:27;;;;;;;;;;;20.30;45.00;;;;;;1548296;77;1587;-60
2023/03/14 10:13:29;;;;;;;;;;;20.40;45.00;;;;;;1538553;77;761;-60
2023/03/14 10:15:31;;;;;;;;;;;20.40;45.00;;;;;;1541639;77;1909;-60
2023/03/14 10:17:35;;;;;;;;;;;20.40;45.00;;;;;;1540689;77;767;-61
2023/03/14 10:19:37;;;;;;;;;;;20.50;45.00;;;;;;1526547;77;1537;-60
2023/03/14 10:21:40;;;;;;;;;;;20.50;45.00;;;;;;1537174;77;1179;-65
2023/03/14 10:23:42;;;;;;;;;;;20.40;44.90;;;;;;1542610;77;739;-61
2023/03/14 10:25:44;;;;;;;;;;;20.50;45.00;;;;;;1545678;77;745;-60
2023/03/14 10:27:46;;;;;;;;;;;20.50;44.90;;;;;;1546247;77;739;-61
2023/03/14 10:29:53;;;;;;;;;;;20.50;44.90;;;;;;1542625;77;749;-60
2023/03/14 10:31:56;;;;;;;;;;;20.50;44.80;;;;;;1534353;77;1696;-61
2023/03/14 10:34:02;;;;;;;;;;;20.50;44.70;;;;;;1547096;77;1535;-61
2023/03/14 10:36:20;;;;;;;;;;;20.50;44.70;;;;;;1543929;77;1917;-61
2023/03/14 10:38:23;;;;;;;;;;;20.50;44.80;;;;;;1528037;77;767;-60
2023/03/14 10:40:27;;;;;;;;;;;20.50;44.70;;;;;;1538572;77;780;-60
2023/03/14 10:42:34;;;;;;;;;;;20.50;44.60;;;;;;1546996;77;2090;-60
2023/03/14 10:44:34;;;;;;;;;;;20.50;44.60;;;;;;1547160;77;924;-60
2023/03/14 10:46:36;;;;;;;;;;;20.50;44.60;;;;;;1547902;77;720;-62
2023/03/14 10:48:39;;;;;;;;;;;20.60;44.50;;;;;;1525391;77;859;-60
2023/03/14 10:50:57;;;;;;;;;;;20.50;44.50;;;;;;1534543;77;708;-62
2023/03/14 10:53:05;;;;;;;;;;;20.50;44.50;;;;;;1537660;77;1104;-61
2023/03/14 10:55:06;;;;;;;;;;;20.50;44.50;;;;;;1544102;77;1635;-61
2023/03/14 10:57:08;;;;;;;;;;;20.50;44.50;;;;;;1537919;77;1944;-59
2023/03/14 10:59:16;;;;;;;;;;;20.50;44.50;;;;;;1546293;77;749;-60
2023/03/14 11:01:19;;;;;;;;;;;20.50;44.50;;;;;;1542782;77;1283;-60
2023/03/14 11:03:21;;;;;;;;;;;20.60;44.40;;;;;;1537884;77;2131;-61
2023/03/14 11:05:28;;;;;;;;;;;20.50;44.40;;;;;;1537690;77;940;-61
2023/03/14 11:07:39;;;;;;;;;;;20.50;44.50;;;;;;1539442;77;762;-60
2023/03/14 11:09:46;;;;;;;;;;;20.50;44.40;;;;;;1537525;77;695;-60
2023/03/14 11:11:48;;;;;;;;;;;20.50;44.40;;;;;;1544069;77;1118;-60
2023/03/14 11:13:52;;;;;;;;;;;20.50;44.40;;;;;;1539777;77;808;-61
2023/03/14 11:15:55;;;;;;;;;;;20.50;44.40;;;;;;1540060;77;2157;-60
2023/03/14 11:17:59;;;;;;;;;;;20.50;44.40;;;;;;1536487;77;762;-62
2023/03/14 11:20:19;;;;;;;;;;;20.50;44.40;;;;;;1542856;77;1703;-62
2023/03/14 11:22:34;;;;;;;;;;;20.50;44.40;;;;;;1545323;77;1205;-60
2023/03/14 11:24:37;;;;;;;;;;;20.50;44.20;;;;;;1544710;77;2430;-62
2023/03/14 11:26:53;;;;;;;;;;;20.50;44.20;;;;;;1544333;77;727;-60
2023/03/14 11:28:57;;;;;;;;;;;20.50;44.30;;;;;;1536607;77;1528;-59
2023/03/14 11:31:00;;;;;;;;;;;20.50;44.30;;;;;;1530114;77;1879;-59
2023/03/14 11:33:13;;;;;;;;;;;20.40;44.20;;;;;;1540887;77;1792;-59
2023/03/14 11:35:23;;;;;;;;;;;20.40;44.20;;;;;;1539667;77;829;-60
2023/03/14 11:37:26;;;;;;;;;;;20.50;44.30;;;;;;1542363;77;1939;-59
2023/03/14 11:39:30;;;;;;;;;;;20.50;44.30;;;;;;1547774;77;692;-63
2023/03/14 11:41:36;;;;;;;;;;;20.50;44.30;;;;;;1543226;77;1122;-59
2023/03/14 11:43:42;;;;;;;;;;;20.50;44.20;;;;;;1537081;77;1535;-60
2023/03/14 11:45:43;;;;;;;;;;;20.40;44.20;;;;;;1535218;77;1434;-59
2023/03/14 11:47:45;;;;;;;;;;;20.50;44.30;;;;;;1540119;77;695;-60
2023/03/14 11:49:51;;;;;;;;;;;20.50;44.20;;;;;;1546768;77;674;-60
2023/03/14 11:51:54;;;;;;;;;;;20.50;44.20;;;;;;1547313;77;1127;-59
2023/03/14 11:53:58;;;;;;;;;;;20.40;44.10;;;;;;1537222;77;728;-60
2023/03/14 11:56:00;;;;;;;;;;;20.40;44.10;;;;;;1532358;77;1943;-60
2023/03/14 11:58:21;;;;;;;;;;;20.50;44.20;;;;;;1547677;77;1603;-60
2023/03/14 12:00:24;;;;;;;;;;;20.50;44.20;;;;;;1540958;77;782;-59
2023/03/14 12:02:33;;;;;;;;;;;20.40;44.10;;;;;;1547857;77;1145;-59
2023/03/14 12:04:43;;;;;;;;;;;20.40;44.20;;;;;;1531645;77;780;-61
2023/03/14 12:06:48;;;;;;;;;;;20.40;44.10;;;;;;1542593;77;792;-58
2023/03/14 12:08:54;;;;;;;;;;;20.40;44.10;;;;;;1523582;77;697;-59
2023/03/14 12:10:58;;;;;;;;;;;20.40;44.10;;;;;;1534453;77;738;-59